createdAt,value
2022-10-17T00:01:17.054Z,100.00
2022-10-17T00:03:44.168Z,100.00
2022-10-17T00:06:14.748Z,100.00
2022-10-17T00:08:44.267Z,100.00
2022-10-17T00:11:19.958Z,100.00
2022-10-17T00:13:52.856Z,100.00
2022-10-17T00:16:33.297Z,100.00
2022-10-17T00:19:00.876Z,100.00
2022-10-17T00:21:28.054Z,100.00
2022-10-17T00:23:55.351Z,100.00
2022-10-17T00:26:23.164Z,100.00
2022-10-17T00:28:53.162Z,100.00
2022-10-17T00:31:22.745Z,100.00
2022-10-17T00:33:51.331Z,100.00
2022-10-17T00:36:25.801Z,100.00
2022-10-17T00:38:57.568Z,100.00
2022-10-17T00:41:32.851Z,100.00
2022-10-17T00:44:29.023Z,100.00
2022-10-17T00:47:05.123Z,100.00
2022-10-17T00:49:42.510Z,100.00
2022-10-17T00:52:32.267Z,100.00
2022-10-17T00:55:09.620Z,100.00
2022-10-17T00:57:47.324Z,100.00
2022-10-17T01:00:17.047Z,100.00
2022-10-17T01:02:45.506Z,100.00
2022-10-17T01:05:16.323Z,100.00
2022-10-17T01:07:45.798Z,100.00
2022-10-17T01:10:14.337Z,100.00
2022-10-17T01:13:23.386Z,100.00
2022-10-17T01:16:07.060Z,100.00
2022-10-17T01:18:43.144Z,100.00
2022-10-17T01:21:46.942Z,100.00
2022-10-17T01:24:56.137Z,100.00
2022-10-17T01:28:10.537Z,100.00
2022-10-17T01:31:22.839Z,100.00
2022-10-17T01:34:31.127Z,100.00
2022-10-17T01:37:26.156Z,100.00
2022-10-17T01:40:01.870Z,100.00
2022-10-17T01:42:49.475Z,100.00
2022-10-17T01:45:44.991Z,100.00
2022-10-17T01:48:25.826Z,100.00
2022-10-17T01:51:03.175Z,100.00
2022-10-17T01:53:41.694Z,100.00
2022-10-17T01:56:13.240Z,100.00
2022-10-17T01:58:53.159Z,100.00
2022-10-17T02:01:33.311Z,100.00
2022-10-17T02:04:06.868Z,100.00
2022-10-17T02:06:40.843Z,100.00
2022-10-17T02:09:20.361Z,100.00
2022-10-17T02:12:21.744Z,100.00
2022-10-17T02:15:11.204Z,100.00
2022-10-17T02:18:17.242Z,100.00
2022-10-17T02:21:02.900Z,100.00
2022-10-17T02:23:48.027Z,100.00
2022-10-17T02:26:47.463Z,100.00
2022-10-17T02:29:23.843Z,100.00
2022-10-17T02:32:23.287Z,100.00
2022-10-17T02:34:56.480Z,100.00
2022-10-17T02:37:47.114Z,100.00
2022-10-17T02:40:20.827Z,100.00
2022-10-17T02:42:51.839Z,100.00
2022-10-17T02:45:23.859Z,100.00
2022-10-17T02:48:05.811Z,100.00
2022-10-17T02:50:56.581Z,100.00
2022-10-17T02:53:43.304Z,100.00
2022-10-17T02:56:20.222Z,100.00
2022-10-17T02:58:55.268Z,100.00
2022-10-17T03:01:27.249Z,100.00
2022-10-17T03:04:14.329Z,100.00
2022-10-17T03:06:42.414Z,100.00
2022-10-17T03:09:10.029Z,100.00
2022-10-17T03:11:37.234Z,100.00
2022-10-17T03:14:11.356Z,100.00
2022-10-17T03:16:38.864Z,100.00
2022-10-17T03:19:09.229Z,100.00
2022-10-17T03:21:37.951Z,100.00
2022-10-17T03:24:05.735Z,100.00
2022-10-17T03:26:32.995Z,100.00
2022-10-17T03:29:00.360Z,100.00
2022-10-17T03:31:28.001Z,100.00
2022-10-17T03:33:55.088Z,100.00
2022-10-17T03:36:22.501Z,100.00
2022-10-17T03:38:53.941Z,100.00
2022-10-17T03:41:21.362Z,100.00
2022-10-17T03:43:48.530Z,100.00
2022-10-17T03:46:15.578Z,100.00
2022-10-17T03:48:42.659Z,100.00
2022-10-17T03:51:12.893Z,100.00
2022-10-17T03:53:40.469Z,100.00
2022-10-17T03:56:16.322Z,100.00
2022-10-17T03:58:44.193Z,100.00
2022-10-17T04:01:15.783Z,100.00
2022-10-17T04:03:43.830Z,100.00
2022-10-17T04:06:12.979Z,100.00
2022-10-17T04:08:43.089Z,100.00
2022-10-17T04:11:17.536Z,100.00
2022-10-17T04:13:45.929Z,100.00
2022-10-17T04:16:18.344Z,100.00
2022-10-17T04:18:45.399Z,100.00
2022-10-17T04:21:14.218Z,100.00
2022-10-17T04:23:41.339Z,100.00
2022-10-17T04:26:08.899Z,100.00
2022-10-17T04:31:15.024Z,100.00
2022-10-17T04:33:45.632Z,100.00
2022-10-17T04:36:17.707Z,100.00
2022-10-17T04:38:45.958Z,100.00
2022-10-17T04:41:17.641Z,100.00
2022-10-17T04:43:51.123Z,100.00
2022-10-17T04:46:22.058Z,100.00
2022-10-17T04:48:57.051Z,100.00
2022-10-17T04:51:26.742Z,100.00
2022-10-17T04:53:54.198Z,100.00
2022-10-17T04:56:25.069Z,100.00
2022-10-17T04:58:52.923Z,100.00
2022-10-17T05:01:24.297Z,100.00
2022-10-17T05:03:52.923Z,100.00
2022-10-17T05:06:30.424Z,100.00
2022-10-17T05:08:59.103Z,100.00
2022-10-17T05:11:33.314Z,100.00
2022-10-17T05:14:03.207Z,100.00
2022-10-17T05:16:35.979Z,100.00
2022-10-17T05:19:03.620Z,100.00
2022-10-17T05:24:00.373Z,100.00
2022-10-17T05:26:27.543Z,100.00
2022-10-17T05:28:54.910Z,100.00
2022-10-17T05:31:24.058Z,100.00
2022-10-17T05:33:51.228Z,100.00
2022-10-17T05:36:20.823Z,100.00
2022-10-17T05:38:51.914Z,100.00
2022-10-17T05:41:20.646Z,100.00
2022-10-17T05:43:48.161Z,100.00
2022-10-17T05:46:19.272Z,100.00
2022-10-17T05:48:46.392Z,100.00
2022-10-17T05:51:13.613Z,100.00
2022-10-17T05:53:41.714Z,100.00
2022-10-17T05:56:12.577Z,100.00
2022-10-17T05:58:53.243Z,100.00
2022-10-17T06:01:25.184Z,100.00
2022-10-17T06:03:52.632Z,100.00
2022-10-17T06:06:20.090Z,100.00
2022-10-17T06:08:47.235Z,100.00
2022-10-17T06:11:14.336Z,100.00
2022-10-17T06:13:42.428Z,100.00
2022-10-17T06:16:09.866Z,100.00
2022-10-17T06:18:37.069Z,100.00
2022-10-17T06:21:07.672Z,100.00
2022-10-17T06:23:34.902Z,100.00
2022-10-17T06:26:07.015Z,100.00
2022-10-17T06:28:36.197Z,100.00
2022-10-17T06:31:13.961Z,100.00
2022-10-17T06:33:41.546Z,100.00
2022-10-17T06:36:12.606Z,100.00
2022-10-17T06:38:42.953Z,100.00
2022-10-17T06:41:16.399Z,100.00
2022-10-17T06:43:47.948Z,100.00
2022-10-17T06:46:20.159Z,100.00
2022-10-17T06:48:47.325Z,100.00
2022-10-17T06:51:14.298Z,100.00
2022-10-17T06:53:41.452Z,100.00
2022-10-17T06:56:10.352Z,100.00
2022-10-17T06:58:39.801Z,100.00
2022-10-17T07:01:13.972Z,100.00
2022-10-17T07:03:43.716Z,100.00
2022-10-17T07:06:13.162Z,100.00
2022-10-17T07:08:45.458Z,100.00
2022-10-17T07:11:21.768Z,100.00
2022-10-17T07:13:54.313Z,100.00
2022-10-17T07:16:28.333Z,100.00
2022-10-17T07:18:57.747Z,100.00
2022-10-17T07:21:28.279Z,100.00
2022-10-17T07:23:55.499Z,100.00
2022-10-17T07:26:25.655Z,100.00
2022-10-17T07:28:57.472Z,100.00
2022-10-17T07:31:25.728Z,100.00
2022-10-17T07:33:56.855Z,100.00
2022-10-17T07:36:24.013Z,100.00
2022-10-17T07:38:50.978Z,100.00
2022-10-17T07:41:21.730Z,100.00
2022-10-17T07:43:50.222Z,100.00
2022-10-17T07:46:19.441Z,100.00
2022-10-17T07:48:46.647Z,100.00
2022-10-17T07:51:13.765Z,100.00
2022-10-17T07:53:46.398Z,100.00
2022-10-17T07:56:16.290Z,100.00
2022-10-17T07:58:48.371Z,100.00
2022-10-17T08:01:18.906Z,100.00
2022-10-17T08:03:48.854Z,100.00
2022-10-17T08:06:16.222Z,100.00
2022-10-17T08:08:44.453Z,100.00
2022-10-17T08:11:14.624Z,100.00
2022-10-17T08:14:01.254Z,100.00
2022-10-17T08:16:28.767Z,100.00
2022-10-17T08:18:58.781Z,100.00
2022-10-17T08:21:25.956Z,100.00
2022-10-17T08:23:53.390Z,100.00
2022-10-17T08:26:21.853Z,100.00
2022-10-17T08:28:50.121Z,100.00
2022-10-17T08:31:27.750Z,100.00
2022-10-17T08:33:58.399Z,100.00
2022-10-17T08:36:25.510Z,100.00
2022-10-17T08:38:53.147Z,100.00
2022-10-17T08:42:02.499Z,100.00
2022-10-17T08:44:58.480Z,100.00
2022-10-17T08:47:39.647Z,100.00
2022-10-17T08:50:22.176Z,100.00
2022-10-17T08:53:04.598Z,100.00
2022-10-17T08:55:44.547Z,100.00
2022-10-17T08:58:31.456Z,100.00
2022-10-17T09:01:33.132Z,100.00
2022-10-17T09:04:11.880Z,100.00
2022-10-17T09:06:47.212Z,100.00
2022-10-17T09:09:44.767Z,100.00
2022-10-17T09:12:34.095Z,100.00
2022-10-17T09:15:26.212Z,100.00
2022-10-17T09:18:23.877Z,100.00
2022-10-17T09:21:23.730Z,100.00
2022-10-17T09:24:09.570Z,100.00
2022-10-17T09:26:41.637Z,100.00
2022-10-17T09:29:35.309Z,100.00
2022-10-17T09:32:24.103Z,100.00
2022-10-17T09:34:53.897Z,100.00
2022-10-17T09:37:32.427Z,100.00
2022-10-17T09:40:02.134Z,100.00
2022-10-17T09:42:30.525Z,100.00
2022-10-17T09:45:14.739Z,100.00
2022-10-17T09:50:34.226Z,100.00
2022-10-17T09:53:15.852Z,100.00
2022-10-17T09:55:51.729Z,100.00
2022-10-17T09:58:21.544Z,100.00
2022-10-17T10:00:52.661Z,100.00
2022-10-17T10:03:26.620Z,100.00
2022-10-17T10:06:06.538Z,100.00
2022-10-17T10:08:49.148Z,100.00
2022-10-17T10:11:20.045Z,100.00
2022-10-17T10:13:54.374Z,100.00
2022-10-17T10:16:33.632Z,100.00
2022-10-17T10:19:03.597Z,100.00
2022-10-17T10:21:37.255Z,100.00
2022-10-17T10:24:10.663Z,100.00
2022-10-17T10:26:50.024Z,100.00
2022-10-17T10:29:34.275Z,100.00
2022-10-17T10:32:24.383Z,100.00
2022-10-17T10:35:19.975Z,100.00
2022-10-17T10:37:53.024Z,100.00
2022-10-17T10:40:37.341Z,100.00
2022-10-17T10:43:08.910Z,100.00
2022-10-17T10:45:54.106Z,100.00
2022-10-17T10:48:24.510Z,100.00
2022-10-17T10:51:01.253Z,100.00
2022-10-17T10:54:03.863Z,100.00
2022-10-17T10:56:55.033Z,100.00
2022-10-17T10:59:45.996Z,100.00
2022-10-17T11:02:23.812Z,100.00
2022-10-17T11:05:31.218Z,100.00
2022-10-17T11:08:35.805Z,100.00
2022-10-17T11:11:18.255Z,100.00
2022-10-17T11:14:05.027Z,100.00
2022-10-17T11:17:03.212Z,100.00
2022-10-17T11:19:56.857Z,100.00
2022-10-17T11:23:22.243Z,100.00
2022-10-17T11:25:53.980Z,100.00
2022-10-17T11:28:25.459Z,100.00
2022-10-17T11:31:09.554Z,100.00
2022-10-17T11:34:19.717Z,100.00
2022-10-17T11:36:54.722Z,100.00
2022-10-17T11:39:52.596Z,100.00
2022-10-17T11:42:32.977Z,100.00
2022-10-17T11:45:09.631Z,100.00
2022-10-17T11:48:07.806Z,93.27
2022-10-17T11:54:12.203Z,71.90
2022-10-17T11:57:37.454Z,66.09
2022-10-17T12:00:25.897Z,65.78
2022-10-17T12:03:21.544Z,79.15
2022-10-17T12:05:59.113Z,100.00
2022-10-17T12:08:43.321Z,100.00
2022-10-17T12:11:42.969Z,100.00
2022-10-17T12:14:41.238Z,100.00
2022-10-17T12:17:37.434Z,67.80
2022-10-17T12:20:23.927Z,56.36
2022-10-17T12:23:05.445Z,51.52
2022-10-17T12:28:17.644Z,65.20
2022-10-17T12:31:15.523Z,70.07
2022-10-17T12:33:48.990Z,58.38
2022-10-17T12:36:28.865Z,50.68
2022-10-17T12:39:06.674Z,47.58
2022-10-17T12:41:40.176Z,55.14
2022-10-17T12:44:13.552Z,54.91
2022-10-17T12:47:10.965Z,64.93
2022-10-17T12:49:56.447Z,100.00
2022-10-17T12:52:35.452Z,95.52
2022-10-17T12:55:14.774Z,100.00
2022-10-17T12:58:14.891Z,100.00
2022-10-17T13:01:05.143Z,100.00
2022-10-17T13:03:45.281Z,100.00
2022-10-17T13:06:29.601Z,100.00
2022-10-17T13:09:17.900Z,100.00
2022-10-17T13:11:45.487Z,100.00
2022-10-17T13:14:17.042Z,100.00
2022-10-17T13:17:03.473Z,100.00
2022-10-17T13:19:48.447Z,100.00
2022-10-17T13:22:29.781Z,84.83
2022-10-17T13:25:16.403Z,76.24
2022-10-17T13:27:44.933Z,94.49
2022-10-17T13:30:31.243Z,67.18
2022-10-17T13:33:03.855Z,66.16
2022-10-17T13:38:37.805Z,100.00
2022-10-17T13:41:34.762Z,100.00
2022-10-17T13:44:10.390Z,100.00
2022-10-17T13:46:40.932Z,100.00
2022-10-17T13:49:25.916Z,100.00
2022-10-17T13:51:55.776Z,100.00
2022-10-17T13:54:40.470Z,100.00
2022-10-17T13:57:31.515Z,100.00
2022-10-17T14:00:22.105Z,100.00
2022-10-17T14:02:49.644Z,100.00
2022-10-17T14:05:23.485Z,100.00
2022-10-17T14:08:14.997Z,87.10
2022-10-17T14:10:47.437Z,66.59
2022-10-17T14:13:36.042Z,62.75
2022-10-17T14:16:05.447Z,61.21
2022-10-17T14:18:36.976Z,100.00
2022-10-17T14:24:22.220Z,100.00
2022-10-17T14:26:58.725Z,100.00
2022-10-17T14:29:29.097Z,100.00
2022-10-17T14:32:11.035Z,100.00
2022-10-17T14:34:40.993Z,100.00
2022-10-17T14:37:25.420Z,100.00
2022-10-17T14:39:55.218Z,100.00
2022-10-17T14:42:26.560Z,100.00
2022-10-17T14:45:04.409Z,100.00
2022-10-17T14:47:43.497Z,100.00
2022-10-17T14:50:13.885Z,100.00
2022-10-17T14:52:41.202Z,100.00
2022-10-17T14:55:37.154Z,100.00
2022-10-17T14:58:36.612Z,100.00
2022-10-17T15:01:05.481Z,100.00
2022-10-17T15:03:38.722Z,100.00
2022-10-17T15:06:46.122Z,100.00
2022-10-17T15:09:13.340Z,100.00
2022-10-17T15:11:40.495Z,100.00
2022-10-17T15:14:07.654Z,100.00
2022-10-17T15:16:40.161Z,100.00
2022-10-17T15:19:07.322Z,100.00
2022-10-17T15:21:43.260Z,100.00
2022-10-17T15:24:14.168Z,100.00
2022-10-17T15:26:41.968Z,100.00
2022-10-17T15:29:15.986Z,100.00
2022-10-17T15:31:43.737Z,100.00
2022-10-17T15:34:11.419Z,100.00
2022-10-17T15:36:50.679Z,100.00
2022-10-17T15:39:17.642Z,100.00
2022-10-17T15:41:44.798Z,100.00
2022-10-17T15:44:11.885Z,100.00
2022-10-17T15:46:43.298Z,100.00
2022-10-17T15:49:20.051Z,100.00
2022-10-17T15:51:50.321Z,100.00
2022-10-17T15:54:19.192Z,100.00
2022-10-17T15:56:55.143Z,100.00
2022-10-17T15:59:33.494Z,100.00
2022-10-17T16:02:05.502Z,100.00
2022-10-17T16:04:32.933Z,100.00
2022-10-17T16:07:02.791Z,100.00
2022-10-17T16:09:34.465Z,100.00
2022-10-17T16:12:05.370Z,100.00
2022-10-17T16:14:33.285Z,100.00
2022-10-17T16:17:00.848Z,100.00
2022-10-17T16:19:30.608Z,100.00
2022-10-17T16:22:04.352Z,100.00
2022-10-17T16:24:32.282Z,100.00
2022-10-17T16:26:59.437Z,100.00
2022-10-17T16:29:29.873Z,100.00
2022-10-17T16:31:56.999Z,100.00
2022-10-17T16:34:24.251Z,100.00
2022-10-17T16:36:52.477Z,100.00
2022-10-17T16:39:20.843Z,100.00
2022-10-17T16:41:53.594Z,100.00
2022-10-17T16:44:25.836Z,100.00
2022-10-17T16:46:52.944Z,100.00
2022-10-17T16:49:20.768Z,100.00
2022-10-17T16:51:49.320Z,100.00
2022-10-17T16:54:16.659Z,100.00
2022-10-17T16:56:43.937Z,100.00
2022-10-17T16:59:14.656Z,100.00
2022-10-17T17:01:45.547Z,100.00
2022-10-17T17:04:15.499Z,100.00
2022-10-17T17:09:18.024Z,100.00
2022-10-17T17:11:45.418Z,100.00
2022-10-17T17:14:13.616Z,100.00
2022-10-17T17:16:44.785Z,100.00
2022-10-17T17:19:22.645Z,100.00
2022-10-17T17:21:52.980Z,100.00
2022-10-17T17:24:25.772Z,100.00
2022-10-17T17:26:56.301Z,100.00
2022-10-17T17:29:29.266Z,100.00
2022-10-17T17:31:56.385Z,100.00
2022-10-17T17:34:26.641Z,100.00
2022-10-17T17:36:55.610Z,100.00
2022-10-17T17:39:23.941Z,100.00
2022-10-17T17:41:55.776Z,100.00
2022-10-17T17:44:23.436Z,100.00
2022-10-17T17:46:51.801Z,100.00
2022-10-17T17:49:19.101Z,100.00
2022-10-17T17:51:49.668Z,100.00
2022-10-17T17:54:16.975Z,100.00
2022-10-17T17:56:44.712Z,100.00
2022-10-17T17:59:15.123Z,100.00
2022-10-17T18:01:45.074Z,100.00
2022-10-17T18:04:13.467Z,100.00
2022-10-17T18:06:41.799Z,100.00
2022-10-17T18:09:10.474Z,100.00
2022-10-17T18:11:38.736Z,100.00
2022-10-17T18:14:12.516Z,100.00
2022-10-17T18:16:40.494Z,100.00
2022-10-17T18:19:12.357Z,100.00
2022-10-17T18:21:39.659Z,100.00
2022-10-17T18:24:09.919Z,100.00
2022-10-17T18:26:37.273Z,100.00
2022-10-17T18:29:06.373Z,100.00
2022-10-17T18:31:37.796Z,100.00
2022-10-17T18:34:06.618Z,100.00
2022-10-17T18:36:36.147Z,100.00
2022-10-17T18:39:06.401Z,100.00
2022-10-17T18:41:39.884Z,100.00
2022-10-17T18:44:08.266Z,100.00
2022-10-17T18:46:41.023Z,100.00
2022-10-17T18:49:12.980Z,100.00
2022-10-17T18:51:41.593Z,100.00
2022-10-17T18:54:23.233Z,100.00
2022-10-17T18:57:04.210Z,100.00
2022-10-17T18:59:34.197Z,100.00
2022-10-17T19:04:43.613Z,100.00
2022-10-17T19:07:11.467Z,100.00
2022-10-17T19:09:42.662Z,100.00
2022-10-17T19:12:09.830Z,100.00
2022-10-17T19:14:39.440Z,100.00
2022-10-17T19:17:06.923Z,100.00
2022-10-17T19:19:35.147Z,100.00
2022-10-17T19:22:03.688Z,100.00
2022-10-17T19:24:31.953Z,100.00
2022-10-17T19:27:04.403Z,100.00
2022-10-17T19:29:33.120Z,100.00
2022-10-17T19:32:06.811Z,100.00
2022-10-17T19:34:35.788Z,100.00
2022-10-17T19:37:03.149Z,100.00
2022-10-17T19:39:30.565Z,100.00
2022-10-17T19:41:57.915Z,100.00
2022-10-17T19:44:31.815Z,100.00
2022-10-17T19:47:03.350Z,100.00
2022-10-17T19:49:31.015Z,100.00
2022-10-17T19:51:58.499Z,100.00
2022-10-17T19:54:26.449Z,100.00
2022-10-17T19:56:53.886Z,100.00
2022-10-17T19:59:21.496Z,100.00
2022-10-17T20:01:57.397Z,100.00
2022-10-17T20:04:25.815Z,100.00
2022-10-17T20:06:53.210Z,100.00
2022-10-17T20:09:21.082Z,100.00
2022-10-17T20:11:52.884Z,100.00
2022-10-17T20:14:20.390Z,100.00
2022-10-17T20:16:52.719Z,100.00
2022-10-17T20:19:28.310Z,100.00
2022-10-17T20:22:03.293Z,100.00
2022-10-17T20:24:32.696Z,100.00
2022-10-17T20:27:03.486Z,100.00
2022-10-17T20:29:30.777Z,100.00
2022-10-17T20:32:01.654Z,100.00
2022-10-17T20:34:35.794Z,100.00
2022-10-17T20:37:09.466Z,100.00
2022-10-17T20:39:36.626Z,100.00
2022-10-17T20:42:03.664Z,100.00
2022-10-17T20:44:31.316Z,100.00
2022-10-17T20:47:02.109Z,100.00
2022-10-17T20:49:31.656Z,100.00
2022-10-17T20:52:00.783Z,100.00
2022-10-17T20:54:28.816Z,100.00
2022-10-17T20:57:01.197Z,100.00
2022-10-17T20:59:34.412Z,100.00
2022-10-17T21:02:02.855Z,100.00
2022-10-17T21:04:45.989Z,100.00
2022-10-17T21:07:14.880Z,100.00
2022-10-17T21:09:46.490Z,100.00
2022-10-17T21:12:26.226Z,100.00
2022-10-17T21:15:05.679Z,100.00
2022-10-17T21:17:33.486Z,100.00
2022-10-17T21:20:01.948Z,100.00
2022-10-17T21:22:29.722Z,100.00
2022-10-17T21:24:57.130Z,100.00
2022-10-17T21:27:25.012Z,100.00
2022-10-17T21:29:52.483Z,100.00
2022-10-17T21:32:33.397Z,100.00
2022-10-17T21:35:09.850Z,100.00
2022-10-17T21:37:43.073Z,100.00
2022-10-17T21:40:16.468Z,100.00
2022-10-17T21:42:43.863Z,100.00
2022-10-17T21:45:15.631Z,100.00
2022-10-17T21:48:12.199Z,100.00
2022-10-17T21:50:41.634Z,100.00
2022-10-17T21:53:08.976Z,100.00
2022-10-17T21:55:42.461Z,100.00
2022-10-17T21:58:13.402Z,100.00
2022-10-17T22:00:44.049Z,100.00
2022-10-17T22:03:12.979Z,100.00
2022-10-17T22:05:40.187Z,100.00
2022-10-17T22:08:07.244Z,100.00
2022-10-17T22:10:38.440Z,100.00
2022-10-17T22:13:08.055Z,100.00
2022-10-17T22:15:37.393Z,100.00
2022-10-17T22:18:07.493Z,100.00
2022-10-17T22:20:36.446Z,100.00
2022-10-17T22:23:03.993Z,100.00
2022-10-17T22:25:31.108Z,100.00
2022-10-17T22:27:58.375Z,100.00
2022-10-17T22:30:28.556Z,100.00
2022-10-17T22:32:55.839Z,100.00
2022-10-17T22:35:23.095Z,100.00
2022-10-17T22:37:51.574Z,100.00
2022-10-17T22:40:20.945Z,100.00
2022-10-17T22:42:48.123Z,100.00
2022-10-17T22:45:15.192Z,100.00
2022-10-17T22:47:42.265Z,100.00
2022-10-17T22:50:09.902Z,100.00
2022-10-17T22:52:37.482Z,100.00
2022-10-17T22:55:09.928Z,100.00
2022-10-17T22:57:41.924Z,100.00
2022-10-17T23:00:12.009Z,100.00
2022-10-17T23:02:40.137Z,100.00
2022-10-17T23:05:08.159Z,100.00
2022-10-17T23:07:38.727Z,100.00
2022-10-17T23:10:11.249Z,100.00
2022-10-17T23:12:38.921Z,100.00
2022-10-17T23:15:06.687Z,100.00
2022-10-17T23:17:33.781Z,100.00
2022-10-17T23:20:04.332Z,100.00
2022-10-17T23:22:31.647Z,100.00
2022-10-17T23:24:58.933Z,100.00
2022-10-17T23:30:00.635Z,100.00
2022-10-17T23:32:28.166Z,100.00
2022-10-17T23:35:02.644Z,100.00
2022-10-17T23:37:29.983Z,100.00
2022-10-17T23:39:57.244Z,100.00
2022-10-17T23:42:28.858Z,100.00
2022-10-17T23:44:56.165Z,100.00
2022-10-17T23:47:24.716Z,100.00
2022-10-17T23:49:51.860Z,100.00
2022-10-17T23:52:21.598Z,100.00
2022-10-17T23:54:50.329Z,100.00
2022-10-17T23:57:18.513Z,100.00
2022-10-17T23:59:48.968Z,100.00
